createdAt,value
2018-10-06T00:00:18.575Z,988.75
2018-10-06T00:01:18.724Z,988.74
2018-10-06T00:02:18.872Z,988.69
2018-10-06T00:03:19.021Z,988.72
2018-10-06T00:04:19.169Z,988.69
2018-10-06T00:05:19.316Z,988.70
2018-10-06T00:06:19.466Z,988.70
2018-10-06T00:07:19.613Z,988.72
2018-10-06T00:08:19.763Z,988.70
2018-10-06T00:09:19.911Z,988.68
2018-10-06T00:10:20.059Z,988.63
2018-10-06T00:11:20.205Z,988.64
2018-10-06T00:12:20.356Z,988.61
2018-10-06T00:13:20.502Z,988.58
2018-10-06T00:14:20.651Z,988.55
2018-10-06T00:15:20.802Z,988.55
2018-10-06T00:16:20.948Z,988.57
2018-10-06T00:17:21.096Z,988.58
2018-10-06T00:18:21.240Z,988.54
2018-10-06T00:19:21.389Z,988.51
2018-10-06T00:20:21.536Z,988.53
2018-10-06T00:21:21.685Z,988.52
2018-10-06T00:22:21.833Z,988.51
2018-10-06T00:23:21.981Z,988.49
2018-10-06T00:24:22.131Z,988.48
2018-10-06T00:25:22.277Z,988.46
2018-10-06T00:26:22.427Z,988.45
2018-10-06T00:27:22.574Z,988.45
2018-10-06T00:28:22.724Z,988.43
2018-10-06T00:29:22.879Z,988.41
2018-10-06T00:30:23.029Z,988.40
2018-10-06T00:31:23.176Z,988.43
2018-10-06T00:32:23.325Z,988.39
2018-10-06T00:33:23.473Z,988.35
2018-10-06T00:34:23.621Z,988.38
2018-10-06T00:35:23.770Z,988.35
2018-10-06T00:36:23.918Z,988.31
2018-10-06T00:37:24.067Z,988.35
2018-10-06T00:38:24.215Z,988.33
2018-10-06T00:39:24.363Z,988.34
2018-10-06T00:40:24.514Z,988.31
2018-10-06T00:41:24.660Z,988.29
2018-10-06T00:42:24.807Z,988.23
2018-10-06T00:43:24.959Z,988.22
2018-10-06T00:44:25.106Z,988.20
2018-10-06T00:45:25.253Z,988.17
2018-10-06T00:46:25.403Z,988.17
2018-10-06T00:47:25.552Z,988.18
2018-10-06T00:48:25.699Z,988.15
2018-10-06T00:49:25.847Z,988.17
2018-10-06T00:50:25.997Z,988.16
2018-10-06T00:51:26.147Z,988.20
2018-10-06T00:52:26.292Z,988.21
2018-10-06T00:53:26.440Z,988.22
2018-10-06T00:54:26.588Z,988.20
2018-10-06T00:55:26.735Z,988.22
2018-10-06T00:56:26.884Z,988.17
2018-10-06T00:57:27.031Z,988.20
2018-10-06T00:58:27.181Z,988.20
2018-10-06T00:59:27.330Z,988.18
2018-10-06T01:00:27.477Z,988.19
2018-10-06T01:01:27.626Z,988.22
2018-10-06T01:02:27.774Z,988.21
2018-10-06T01:03:27.921Z,988.17
2018-10-06T01:04:28.070Z,988.19
2018-10-06T01:05:28.217Z,988.18
2018-10-06T01:06:28.365Z,988.18
2018-10-06T01:07:28.512Z,988.16
2018-10-06T01:08:28.663Z,988.14
2018-10-06T01:09:28.815Z,988.18
2018-10-06T01:10:28.961Z,988.15
2018-10-06T01:11:29.108Z,988.14
2018-10-06T01:12:29.256Z,988.19
2018-10-06T01:13:29.402Z,988.13
2018-10-06T01:14:29.552Z,988.14
2018-10-06T01:15:29.700Z,988.10
2018-10-06T01:16:29.850Z,988.10
2018-10-06T01:17:30.001Z,988.08
2018-10-06T01:18:30.147Z,988.10
2018-10-06T01:19:30.295Z,988.07
2018-10-06T01:20:30.442Z,988.06
2018-10-06T01:21:30.591Z,988.04
2018-10-06T01:22:30.740Z,988.06
2018-10-06T01:23:30.889Z,988.03
2018-10-06T01:24:31.037Z,988.06
2018-10-06T01:25:31.185Z,988.07
2018-10-06T01:26:31.334Z,988.07
2018-10-06T01:27:31.482Z,988.02
2018-10-06T01:28:31.631Z,988.07
2018-10-06T01:29:31.779Z,988.02
2018-10-06T01:30:31.930Z,988.03
2018-10-06T01:31:32.080Z,988.02
2018-10-06T01:32:32.224Z,988.01
2018-10-06T01:33:32.372Z,988.02
2018-10-06T01:34:32.520Z,988.02
2018-10-06T01:35:32.672Z,987.97
2018-10-06T01:36:32.818Z,987.98
2018-10-06T01:37:32.965Z,987.97
2018-10-06T01:38:33.114Z,987.99
2018-10-06T01:39:33.265Z,987.95
2018-10-06T01:40:33.411Z,987.95
2018-10-06T01:41:33.555Z,987.97
2018-10-06T01:42:33.704Z,987.98
2018-10-06T01:43:33.852Z,987.99
2018-10-06T01:44:34.001Z,987.96
2018-10-06T01:45:34.148Z,987.92
2018-10-06T01:46:34.301Z,987.96
2018-10-06T01:47:34.447Z,987.93
2018-10-06T01:48:34.596Z,987.94
2018-10-06T01:49:34.741Z,987.93
2018-10-06T01:50:34.892Z,987.92
2018-10-06T01:51:35.043Z,987.86
2018-10-06T01:52:35.186Z,987.92
2018-10-06T01:53:35.332Z,987.91
2018-10-06T01:54:35.481Z,987.91
2018-10-06T01:55:35.630Z,987.92
2018-10-06T01:56:35.776Z,987.92
2018-10-06T01:57:35.924Z,987.92
2018-10-06T01:58:36.076Z,987.89
2018-10-06T01:59:36.220Z,987.92
2018-10-06T02:00:36.366Z,987.90
2018-10-06T02:01:36.512Z,987.90
2018-10-06T02:02:36.659Z,987.93
2018-10-06T02:03:36.806Z,987.90
2018-10-06T02:04:36.954Z,987.90
2018-10-06T02:05:37.103Z,987.89
2018-10-06T02:06:37.256Z,987.88
2018-10-06T02:07:37.399Z,987.88
2018-10-06T02:08:37.544Z,987.83
2018-10-06T02:09:37.695Z,987.89
2018-10-06T02:10:37.836Z,987.85
2018-10-06T02:11:37.985Z,987.87
2018-10-06T02:12:38.132Z,987.86
2018-10-06T02:13:38.280Z,987.84
2018-10-06T02:14:38.427Z,987.84
2018-10-06T02:15:38.573Z,987.81
2018-10-06T02:16:38.720Z,987.80
2018-10-06T02:17:38.872Z,987.79
2018-10-06T02:18:39.019Z,987.78
2018-10-06T02:19:39.164Z,987.77
2018-10-06T02:20:39.311Z,987.80
2018-10-06T02:21:39.457Z,987.73
2018-10-06T02:22:39.605Z,987.72
2018-10-06T02:23:39.752Z,987.73
2018-10-06T02:24:39.902Z,987.70
2018-10-06T02:25:40.049Z,987.69
2018-10-06T02:26:40.193Z,987.73
2018-10-06T02:27:40.343Z,987.68
2018-10-06T02:28:40.490Z,987.63
2018-10-06T02:29:40.634Z,987.62
2018-10-06T02:30:40.807Z,987.68
2018-10-06T02:31:40.954Z,987.61
2018-10-06T02:32:41.100Z,987.65
2018-10-06T02:33:41.248Z,987.64
2018-10-06T02:34:41.396Z,987.66
2018-10-06T02:35:41.546Z,987.65
2018-10-06T02:36:41.704Z,987.63
2018-10-06T02:37:41.838Z,987.62
2018-10-06T02:38:41.986Z,987.64
2018-10-06T02:39:42.134Z,987.60
2018-10-06T02:40:42.283Z,987.57
2018-10-06T02:41:42.428Z,987.54
2018-10-06T02:42:42.576Z,987.56
2018-10-06T02:43:42.725Z,987.52
2018-10-06T02:44:42.877Z,987.58
2018-10-06T02:45:43.023Z,987.55
2018-10-06T02:46:43.168Z,987.48
2018-10-06T02:47:43.316Z,987.51
2018-10-06T02:48:43.464Z,987.50
2018-10-06T02:49:43.612Z,987.49
2018-10-06T02:50:43.759Z,987.53
2018-10-06T02:51:43.905Z,987.49
2018-10-06T02:52:44.053Z,987.50
2018-10-06T02:53:44.202Z,987.43
2018-10-06T02:54:44.350Z,987.44
2018-10-06T02:55:44.503Z,987.45
2018-10-06T02:56:44.651Z,987.45
2018-10-06T02:57:44.796Z,987.44
2018-10-06T02:58:44.944Z,987.47
2018-10-06T02:59:45.089Z,987.43
2018-10-06T03:00:45.236Z,987.42
2018-10-06T03:01:45.386Z,987.44
2018-10-06T03:02:45.535Z,987.44
2018-10-06T03:03:45.681Z,987.44
2018-10-06T03:04:45.828Z,987.42
2018-10-06T03:05:45.978Z,987.40
2018-10-06T03:06:46.129Z,987.41
2018-10-06T03:07:46.272Z,987.41
2018-10-06T03:08:46.427Z,987.35
2018-10-06T03:09:46.564Z,987.32
2018-10-06T03:10:46.714Z,987.33
2018-10-06T03:11:46.863Z,987.35
2018-10-06T03:12:47.010Z,987.42
2018-10-06T03:13:47.156Z,987.35
2018-10-06T03:14:47.305Z,987.38
2018-10-06T03:15:47.460Z,987.42
2018-10-06T03:16:47.601Z,987.42
2018-10-06T03:17:47.746Z,987.40
2018-10-06T03:18:47.893Z,987.42
2018-10-06T03:19:48.041Z,987.36
2018-10-06T03:20:48.190Z,987.28
2018-10-06T03:21:48.337Z,987.33
2018-10-06T03:22:48.485Z,987.28
2018-10-06T03:23:48.635Z,987.28
2018-10-06T03:24:48.781Z,987.25
2018-10-06T03:25:48.926Z,987.23
2018-10-06T03:26:49.074Z,987.22
2018-10-06T03:27:49.222Z,987.24
2018-10-06T03:28:49.385Z,987.23
2018-10-06T03:29:49.516Z,987.16
2018-10-06T03:30:49.669Z,987.17
2018-10-06T03:31:49.815Z,987.13
2018-10-06T03:32:49.961Z,987.13
2018-10-06T03:33:50.108Z,987.09
2018-10-06T03:34:50.258Z,987.11
2018-10-06T03:35:50.404Z,987.11
2018-10-06T03:36:50.548Z,987.04
2018-10-06T03:37:50.699Z,987.07
2018-10-06T03:38:50.847Z,987.09
2018-10-06T03:39:50.991Z,987.06
2018-10-06T03:40:51.141Z,987.03
2018-10-06T03:41:51.351Z,987.08
2018-10-06T03:42:51.438Z,987.07
2018-10-06T03:43:51.603Z,987.08
2018-10-06T03:44:51.735Z,987.09
2018-10-06T03:45:51.887Z,987.05
2018-10-06T03:46:52.036Z,987.01
2018-10-06T03:47:52.184Z,987.02
2018-10-06T03:48:52.329Z,986.99
2018-10-06T03:49:52.476Z,987.01
2018-10-06T03:50:52.625Z,986.99
2018-10-06T03:51:52.775Z,987.00
2018-10-06T03:52:52.923Z,986.98
2018-10-06T03:53:53.129Z,986.98
2018-10-06T03:54:53.217Z,986.95
2018-10-06T03:55:53.364Z,986.99
2018-10-06T03:56:53.519Z,986.97
2018-10-06T03:57:53.662Z,987.00
2018-10-06T03:58:53.805Z,986.98
2018-10-06T03:59:53.952Z,987.02
2018-10-06T04:00:54.099Z,987.05
2018-10-06T04:01:54.247Z,987.12
2018-10-06T04:02:54.393Z,987.08
2018-10-06T04:03:54.540Z,987.10
2018-10-06T04:04:54.689Z,987.06
2018-10-06T04:05:54.837Z,987.08
2018-10-06T04:06:54.981Z,987.07
2018-10-06T04:07:55.130Z,987.06
2018-10-06T04:08:55.277Z,987.00
2018-10-06T04:09:55.427Z,987.04
2018-10-06T04:10:55.573Z,987.06
2018-10-06T04:11:55.720Z,987.05
2018-10-06T04:12:55.867Z,987.05
2018-10-06T04:13:56.014Z,987.02
2018-10-06T04:14:56.162Z,987.05
2018-10-06T04:15:56.312Z,987.04
2018-10-06T04:16:56.460Z,987.01
2018-10-06T04:17:56.611Z,987.01
2018-10-06T04:18:56.762Z,987.00
2018-10-06T04:19:56.905Z,987.00
2018-10-06T04:20:57.056Z,987.01
2018-10-06T04:21:57.202Z,986.97
2018-10-06T04:22:57.347Z,986.97
2018-10-06T04:23:57.498Z,986.99
2018-10-06T04:24:57.643Z,986.95
2018-10-06T04:25:57.790Z,986.98
2018-10-06T04:26:57.938Z,986.96
2018-10-06T04:27:58.086Z,986.93
2018-10-06T04:28:58.235Z,986.94
2018-10-06T04:29:58.381Z,986.92
2018-10-06T04:30:58.530Z,986.93
2018-10-06T04:31:58.676Z,986.90
2018-10-06T04:32:58.822Z,986.89
2018-10-06T04:33:58.968Z,986.89
2018-10-06T04:34:59.117Z,986.92
2018-10-06T04:35:59.274Z,986.86
2018-10-06T04:36:59.416Z,986.86
2018-10-06T04:37:59.565Z,986.87
2018-10-06T04:38:59.709Z,986.90
2018-10-06T04:39:59.857Z,986.87
2018-10-06T04:41:00.005Z,986.86
2018-10-06T04:42:00.152Z,986.86
2018-10-06T04:43:00.299Z,986.85
2018-10-06T04:44:00.446Z,986.82
2018-10-06T04:45:00.595Z,986.87
2018-10-06T04:46:00.740Z,986.81
2018-10-06T04:47:00.890Z,986.79
2018-10-06T04:48:01.037Z,986.79
2018-10-06T04:49:01.186Z,986.77
2018-10-06T04:50:01.332Z,986.75
2018-10-06T04:51:01.476Z,986.74
2018-10-06T04:52:01.624Z,986.74
2018-10-06T04:53:01.808Z,986.76
2018-10-06T04:54:01.919Z,986.70
2018-10-06T04:55:02.077Z,986.72
2018-10-06T04:56:02.218Z,986.71
2018-10-06T04:57:02.362Z,986.73
2018-10-06T04:58:02.510Z,986.73
2018-10-06T04:59:02.660Z,986.76
2018-10-06T05:00:02.812Z,986.72
2018-10-06T05:01:02.953Z,986.72
2018-10-06T05:02:03.101Z,986.76
2018-10-06T05:03:03.250Z,986.72
2018-10-06T05:04:03.397Z,986.68
2018-10-06T05:05:03.546Z,986.72
2018-10-06T05:06:03.689Z,986.69
2018-10-06T05:07:03.838Z,986.71
2018-10-06T05:08:03.987Z,986.70
2018-10-06T05:09:04.131Z,986.72
2018-10-06T05:10:04.280Z,986.74
2018-10-06T05:11:04.429Z,986.70
2018-10-06T05:12:04.574Z,986.74
2018-10-06T05:13:04.721Z,986.73
2018-10-06T05:14:04.868Z,986.76
2018-10-06T05:15:05.014Z,986.77
2018-10-06T05:16:05.162Z,986.79
2018-10-06T05:17:05.307Z,986.76
2018-10-06T05:18:05.455Z,986.74
2018-10-06T05:19:05.606Z,986.75
2018-10-06T05:20:05.753Z,986.70
2018-10-06T05:21:05.900Z,986.71
2018-10-06T05:22:06.046Z,986.68
2018-10-06T05:23:06.193Z,986.69
2018-10-06T05:24:06.343Z,986.67
2018-10-06T05:25:06.489Z,986.65
2018-10-06T05:26:06.637Z,986.70
2018-10-06T05:27:06.784Z,986.67
2018-10-06T05:28:06.938Z,986.64
2018-10-06T05:29:07.083Z,986.67
2018-10-06T05:30:07.225Z,986.65
2018-10-06T05:31:07.374Z,986.65
2018-10-06T05:32:07.522Z,986.63
2018-10-06T05:33:07.671Z,986.66
2018-10-06T05:34:07.848Z,986.69
2018-10-06T05:35:07.966Z,986.71
2018-10-06T05:36:08.113Z,986.70
2018-10-06T05:37:08.262Z,986.72
2018-10-06T05:38:08.408Z,986.70
2018-10-06T05:39:08.554Z,986.67
2018-10-06T05:40:08.699Z,986.66
2018-10-06T05:41:08.847Z,986.66
2018-10-06T05:42:08.998Z,986.65
2018-10-06T05:43:09.145Z,986.64
2018-10-06T05:44:09.295Z,986.66
2018-10-06T05:45:09.442Z,986.62
2018-10-06T05:46:09.591Z,986.60
2018-10-06T05:47:09.738Z,986.60
2018-10-06T05:48:09.880Z,986.61
2018-10-06T05:49:10.028Z,986.60
2018-10-06T05:50:10.181Z,986.60
2018-10-06T05:51:10.323Z,986.62
2018-10-06T05:52:10.472Z,986.58
2018-10-06T05:53:10.626Z,986.61
2018-10-06T05:54:10.762Z,986.61
2018-10-06T05:55:10.935Z,986.64
2018-10-06T05:56:11.079Z,986.61
2018-10-06T05:57:11.230Z,986.63
2018-10-06T05:58:11.375Z,986.64
2018-10-06T05:59:11.593Z,986.66
2018-10-06T06:00:11.670Z,986.70
2018-10-06T06:01:11.819Z,986.73
2018-10-06T06:02:11.967Z,986.70
2018-10-06T06:03:12.113Z,986.77
2018-10-06T06:04:12.261Z,986.75
2018-10-06T06:05:12.408Z,986.75
2018-10-06T06:06:12.556Z,986.73
2018-10-06T06:07:12.704Z,986.79
2018-10-06T06:08:12.851Z,986.78
2018-10-06T06:09:13.001Z,986.79
2018-10-06T06:10:13.145Z,986.79
2018-10-06T06:11:13.291Z,986.78
2018-10-06T06:12:13.438Z,986.79
2018-10-06T06:13:13.588Z,986.81
2018-10-06T06:14:13.732Z,986.81
2018-10-06T06:15:13.884Z,986.83
2018-10-06T06:16:14.032Z,986.83
2018-10-06T06:17:14.175Z,986.84
2018-10-06T06:18:14.325Z,986.81
2018-10-06T06:19:14.474Z,986.80
2018-10-06T06:20:14.621Z,986.81
2018-10-06T06:21:14.767Z,986.83
2018-10-06T06:22:14.914Z,986.85
2018-10-06T06:23:15.061Z,986.84
2018-10-06T06:24:15.210Z,986.85
2018-10-06T06:25:15.347Z,986.85
2018-10-06T06:26:15.507Z,986.83
2018-10-06T06:27:15.653Z,986.85
2018-10-06T06:28:15.802Z,986.85
2018-10-06T06:29:15.950Z,986.85
2018-10-06T06:30:16.097Z,986.87
2018-10-06T06:31:16.313Z,986.93
2018-10-06T06:32:16.463Z,986.86
2018-10-06T06:33:16.544Z,986.89
2018-10-06T06:34:16.691Z,986.92
2018-10-06T06:35:16.839Z,986.94
2018-10-06T06:36:16.990Z,986.94
2018-10-06T06:37:17.138Z,986.94
2018-10-06T06:38:17.335Z,986.94
2018-10-06T06:39:17.433Z,986.93
2018-10-06T06:40:17.585Z,986.90
2018-10-06T06:41:17.731Z,986.87
2018-10-06T06:42:17.880Z,986.88
2018-10-06T06:43:18.029Z,986.88
2018-10-06T06:44:18.237Z,986.93
2018-10-06T06:45:18.324Z,986.85
2018-10-06T06:46:18.477Z,986.86
2018-10-06T06:47:18.623Z,986.87
2018-10-06T06:48:18.776Z,986.86
2018-10-06T06:49:18.921Z,986.88
2018-10-06T06:50:19.067Z,986.84
2018-10-06T06:51:19.217Z,986.87
2018-10-06T06:52:19.364Z,986.88
2018-10-06T06:53:19.515Z,986.85
2018-10-06T06:54:19.662Z,986.85
2018-10-06T06:55:19.811Z,986.86
2018-10-06T06:56:19.961Z,986.84
2018-10-06T06:57:20.109Z,986.82
2018-10-06T06:58:20.257Z,986.81
2018-10-06T06:59:20.408Z,986.80
2018-10-06T07:00:20.557Z,986.80
2018-10-06T07:01:20.706Z,986.81
2018-10-06T07:02:20.857Z,986.81
2018-10-06T07:03:21.004Z,986.77
2018-10-06T07:04:21.152Z,986.82
2018-10-06T07:05:21.300Z,986.80
2018-10-06T07:06:21.452Z,986.76
2018-10-06T07:07:21.597Z,986.78
2018-10-06T07:08:21.742Z,986.79
2018-10-06T07:09:21.891Z,986.71
2018-10-06T07:10:22.037Z,986.74
2018-10-06T07:11:22.185Z,986.69
2018-10-06T07:12:22.336Z,986.69
2018-10-06T07:13:22.486Z,986.72
2018-10-06T07:14:22.636Z,986.73
2018-10-06T07:15:22.782Z,986.72
2018-10-06T07:16:22.934Z,986.70
2018-10-06T07:17:23.079Z,986.74
2018-10-06T07:18:23.263Z,986.69
2018-10-06T07:19:23.377Z,986.70
2018-10-06T07:20:23.528Z,986.69
2018-10-06T07:21:23.676Z,986.74
2018-10-06T07:22:23.823Z,986.72
2018-10-06T07:23:23.973Z,986.68
2018-10-06T07:24:24.123Z,986.71
2018-10-06T07:25:24.274Z,986.69
2018-10-06T07:26:24.420Z,986.72
2018-10-06T07:27:24.575Z,986.74
2018-10-06T07:28:24.722Z,986.72
2018-10-06T07:29:24.868Z,986.70
2018-10-06T07:30:25.019Z,986.73
2018-10-06T07:31:25.164Z,986.69
2018-10-06T07:32:25.317Z,986.69
2018-10-06T07:33:25.467Z,986.69
2018-10-06T07:34:25.617Z,986.69
2018-10-06T07:35:25.765Z,986.70
2018-10-06T07:36:25.914Z,986.71
2018-10-06T07:37:26.066Z,986.69
2018-10-06T07:38:26.215Z,986.66
2018-10-06T07:39:26.364Z,986.69
2018-10-06T07:40:26.516Z,986.67
2018-10-06T07:41:26.666Z,986.68
2018-10-06T07:42:26.813Z,986.67
2018-10-06T07:43:26.965Z,986.68
2018-10-06T07:44:27.111Z,986.63
2018-10-06T07:45:27.262Z,986.65
2018-10-06T07:46:27.411Z,986.66
2018-10-06T07:47:27.565Z,986.63
2018-10-06T07:48:27.708Z,986.67
2018-10-06T07:49:27.857Z,986.68
2018-10-06T07:50:28.009Z,986.71
2018-10-06T07:51:28.154Z,986.67
2018-10-06T07:52:28.305Z,986.70
2018-10-06T07:53:28.451Z,986.71
2018-10-06T07:54:28.603Z,986.70
2018-10-06T07:55:28.754Z,986.72
2018-10-06T07:56:28.903Z,986.72
2018-10-06T07:57:29.053Z,986.75
2018-10-06T07:58:29.203Z,986.73
2018-10-06T07:59:29.433Z,986.71
2018-10-06T08:00:29.549Z,986.75
2018-10-06T08:01:29.653Z,986.71
2018-10-06T08:02:29.838Z,986.71
2018-10-06T08:03:29.956Z,986.70
2018-10-06T08:04:30.104Z,986.66
2018-10-06T08:05:30.255Z,986.65
2018-10-06T08:06:30.477Z,986.64
2018-10-06T08:07:30.555Z,986.60
2018-10-06T08:08:30.711Z,986.57
2018-10-06T08:09:30.854Z,986.56
2018-10-06T08:10:31.001Z,986.50
2018-10-06T08:11:31.152Z,986.56
2018-10-06T08:12:31.303Z,986.50
2018-10-06T08:13:31.453Z,986.50
2018-10-06T08:14:31.601Z,986.49
2018-10-06T08:15:31.753Z,986.48
2018-10-06T08:16:31.902Z,986.44
2018-10-06T08:17:32.054Z,986.42
2018-10-06T08:18:32.205Z,986.42
2018-10-06T08:19:32.409Z,986.40
2018-10-06T08:20:32.511Z,986.40
2018-10-06T08:21:32.656Z,986.37
2018-10-06T08:22:32.809Z,986.42
2018-10-06T08:23:32.960Z,986.46
2018-10-06T08:24:33.107Z,986.45
2018-10-06T08:25:33.259Z,986.45
2018-10-06T08:26:33.409Z,986.42
2018-10-06T08:27:33.565Z,986.44
2018-10-06T08:28:33.711Z,986.46
2018-10-06T08:29:33.861Z,986.46
2018-10-06T08:30:34.013Z,986.42
2018-10-06T08:31:34.165Z,986.45
2018-10-06T08:32:34.315Z,986.49
2018-10-06T08:33:34.468Z,986.41
2018-10-06T08:34:34.615Z,986.40
2018-10-06T08:35:34.764Z,986.40
2018-10-06T08:36:34.917Z,986.45
2018-10-06T08:37:35.068Z,986.45
2018-10-06T08:38:35.219Z,986.44
2018-10-06T08:39:35.370Z,986.41
2018-10-06T08:40:35.520Z,986.41
2018-10-06T08:41:35.671Z,986.42
2018-10-06T08:42:35.838Z,986.41
2018-10-06T08:43:35.974Z,986.42
2018-10-06T08:44:36.127Z,986.42
2018-10-06T08:45:36.277Z,986.42
2018-10-06T08:46:36.424Z,986.37
2018-10-06T08:47:36.576Z,986.34
2018-10-06T08:48:36.726Z,986.32
2018-10-06T08:49:36.882Z,986.36
2018-10-06T08:50:37.031Z,986.35
2018-10-06T08:51:37.183Z,986.38
2018-10-06T08:52:37.335Z,986.33
2018-10-06T08:53:37.488Z,986.30
2018-10-06T08:54:37.639Z,986.34
2018-10-06T08:55:37.795Z,986.34
2018-10-06T08:56:37.939Z,986.32
2018-10-06T08:57:38.094Z,986.32
2018-10-06T08:58:38.243Z,986.30
2018-10-06T08:59:38.393Z,986.26
2018-10-06T09:00:38.544Z,986.24
2018-10-06T09:01:38.695Z,986.24
2018-10-06T09:02:38.852Z,986.26
2018-10-06T09:03:39.002Z,986.29
2018-10-06T09:04:39.224Z,986.30
2018-10-06T09:05:39.308Z,986.27
2018-10-06T09:06:39.459Z,986.26
2018-10-06T09:07:39.609Z,986.24
2018-10-06T09:08:39.762Z,986.21
2018-10-06T09:09:39.913Z,986.23
2018-10-06T09:10:40.066Z,986.18
2018-10-06T09:11:40.221Z,986.18
2018-10-06T09:12:40.372Z,986.16
2018-10-06T09:13:40.524Z,986.13
2018-10-06T09:14:40.677Z,986.11
2018-10-06T09:15:40.834Z,986.14
2018-10-06T09:16:40.986Z,986.10
2018-10-06T09:17:41.169Z,986.12
2018-10-06T09:18:41.287Z,986.14
2018-10-06T09:19:41.439Z,986.16
2018-10-06T09:20:41.591Z,986.12
2018-10-06T09:21:41.744Z,986.13
2018-10-06T09:22:41.897Z,986.13
2018-10-06T09:23:42.050Z,986.14
2018-10-06T09:24:42.200Z,986.10
2018-10-06T09:25:42.355Z,986.03
2018-10-06T09:26:42.507Z,986.08
2018-10-06T09:27:42.658Z,986.02
2018-10-06T09:28:42.812Z,986.02
2018-10-06T09:29:42.964Z,985.99
2018-10-06T09:30:43.118Z,985.98
2018-10-06T09:31:43.269Z,985.96
2018-10-06T09:32:43.423Z,985.97
2018-10-06T09:33:43.575Z,985.98
2018-10-06T09:34:43.730Z,985.96
2018-10-06T09:35:43.882Z,985.97
2018-10-06T09:36:44.034Z,985.92
2018-10-06T09:37:44.191Z,985.93
2018-10-06T09:38:44.343Z,985.93
2018-10-06T09:39:44.496Z,985.91
2018-10-06T09:40:44.648Z,985.87
2018-10-06T09:41:44.809Z,985.84
2018-10-06T09:42:45.127Z,985.82
2018-10-06T09:43:45.117Z,985.81
2018-10-06T09:44:45.266Z,985.82
2018-10-06T09:45:45.423Z,985.79
2018-10-06T09:46:45.577Z,985.81
2018-10-06T09:47:45.730Z,985.78
2018-10-06T09:48:45.888Z,985.78
2018-10-06T09:49:46.043Z,985.75
2018-10-06T09:50:46.194Z,985.71
2018-10-06T09:51:46.350Z,985.71
2018-10-06T09:52:46.507Z,985.73
2018-10-06T09:53:46.744Z,985.74
2018-10-06T09:54:46.815Z,985.72
2018-10-06T09:55:46.969Z,985.74
2018-10-06T09:56:47.127Z,985.70
2018-10-06T09:57:47.278Z,985.70
2018-10-06T09:58:47.434Z,985.65
2018-10-06T09:59:47.589Z,985.64
2018-10-06T10:00:47.744Z,985.58
2018-10-06T10:01:47.901Z,985.60
2018-10-06T10:02:48.056Z,985.57
2018-10-06T10:03:48.211Z,985.58
2018-10-06T10:04:48.363Z,985.54
2018-10-06T10:05:48.561Z,985.57
2018-10-06T10:06:48.673Z,985.53
2018-10-06T10:07:48.829Z,985.60
2018-10-06T10:08:48.983Z,985.56
2018-10-06T10:09:49.184Z,985.57
2018-10-06T10:10:49.294Z,985.54
2018-10-06T10:11:49.451Z,985.53
2018-10-06T10:12:49.605Z,985.56
2018-10-06T10:13:49.753Z,985.51
2018-10-06T10:14:49.910Z,985.47
2018-10-06T10:15:50.063Z,985.48
2018-10-06T10:16:50.233Z,985.47
2018-10-06T10:17:50.564Z,985.45
2018-10-06T10:18:50.535Z,985.49
2018-10-06T10:19:50.690Z,985.42
2018-10-06T10:20:50.846Z,985.39
2018-10-06T10:21:51.097Z,985.43
2018-10-06T10:22:51.182Z,985.41
2018-10-06T10:23:51.387Z,985.41
2018-10-06T10:24:51.462Z,985.38
2018-10-06T10:25:51.621Z,985.36
2018-10-06T10:26:51.774Z,985.37
2018-10-06T10:27:51.929Z,985.33
2018-10-06T10:28:52.127Z,985.32
2018-10-06T10:29:52.242Z,985.31
2018-10-06T10:30:52.398Z,985.28
2018-10-06T10:31:52.555Z,985.29
2018-10-06T10:32:52.711Z,985.28
2018-10-06T10:33:52.866Z,985.23
2018-10-06T10:34:53.022Z,985.26
2018-10-06T10:35:53.176Z,985.23
2018-10-06T10:36:53.333Z,985.29
2018-10-06T10:37:53.490Z,985.24
2018-10-06T10:38:53.646Z,985.22
2018-10-06T10:39:53.803Z,985.18
2018-10-06T10:40:53.959Z,985.12
2018-10-06T10:41:54.119Z,985.12
2018-10-06T10:42:54.273Z,985.14
2018-10-06T10:43:54.491Z,985.14
2018-10-06T10:44:54.581Z,985.11
2018-10-06T10:45:54.736Z,985.15
2018-10-06T10:46:54.894Z,985.11
2018-10-06T10:47:55.053Z,985.10
2018-10-06T10:48:55.209Z,985.05
2018-10-06T10:49:55.364Z,985.03
2018-10-06T10:50:55.524Z,985.04
2018-10-06T10:51:55.680Z,985.02
2018-10-06T10:52:55.853Z,985.02
2018-10-06T10:53:55.988Z,985.01
2018-10-06T10:54:56.145Z,984.98
2018-10-06T10:55:56.306Z,984.96
2018-10-06T10:56:56.461Z,984.99
2018-10-06T10:57:56.618Z,985.00
2018-10-06T10:58:56.773Z,984.96
2018-10-06T10:59:57.154Z,984.93
2018-10-06T11:00:57.134Z,984.90
2018-10-06T11:01:57.246Z,984.88
2018-10-06T11:02:57.402Z,984.88
2018-10-06T11:03:57.597Z,984.90
2018-10-06T11:04:57.717Z,984.86
2018-10-06T11:05:57.874Z,984.83
2018-10-06T11:06:58.031Z,984.82
2018-10-06T11:07:58.190Z,984.80
2018-10-06T11:08:58.345Z,984.83
2018-10-06T11:09:58.504Z,984.76
2018-10-06T11:10:58.661Z,984.76
2018-10-06T11:11:58.819Z,984.80
2018-10-06T11:12:58.974Z,984.77
2018-10-06T11:13:59.132Z,984.73
2018-10-06T11:14:59.289Z,984.74
2018-10-06T11:15:59.449Z,984.68
2018-10-06T11:16:59.608Z,984.67
2018-10-06T11:17:59.766Z,984.63
2018-10-06T11:18:59.923Z,984.65
2018-10-06T11:20:00.086Z,984.61
2018-10-06T11:21:00.237Z,984.57
2018-10-06T11:22:00.393Z,984.57
2018-10-06T11:23:00.551Z,984.50
2018-10-06T11:24:00.710Z,984.50
2018-10-06T11:25:00.938Z,984.48
2018-10-06T11:26:01.022Z,984.43
2018-10-06T11:27:01.183Z,984.40
2018-10-06T11:28:01.342Z,984.41
2018-10-06T11:29:01.500Z,984.35
2018-10-06T11:30:01.662Z,984.36
2018-10-06T11:31:01.816Z,984.39
2018-10-06T11:32:01.976Z,984.39
2018-10-06T11:33:02.132Z,984.36
2018-10-06T11:34:02.292Z,984.33
2018-10-06T11:35:02.449Z,984.31
2018-10-06T11:36:02.608Z,984.29
2018-10-06T11:37:02.763Z,984.32
2018-10-06T11:38:02.967Z,984.30
2018-10-06T11:39:03.080Z,984.30
2018-10-06T11:40:03.245Z,984.31
2018-10-06T11:41:03.397Z,984.28
2018-10-06T11:42:03.555Z,984.25
2018-10-06T11:43:03.709Z,984.25
2018-10-06T11:44:03.872Z,984.27
2018-10-06T11:45:04.030Z,984.24
2018-10-06T11:46:04.188Z,984.23
2018-10-06T11:47:04.351Z,984.25
2018-10-06T11:48:04.505Z,984.23
2018-10-06T11:49:04.664Z,984.23
2018-10-06T11:50:04.830Z,984.22
2018-10-06T11:51:04.981Z,984.23
2018-10-06T11:52:05.141Z,984.16
2018-10-06T11:53:05.305Z,984.14
2018-10-06T11:54:05.462Z,984.14
2018-10-06T11:55:05.623Z,984.08
2018-10-06T11:56:05.779Z,984.11
2018-10-06T11:57:05.941Z,984.10
2018-10-06T11:58:06.097Z,984.13
2018-10-06T11:59:06.256Z,984.12
2018-10-06T12:00:06.496Z,984.10
2018-10-06T12:01:06.571Z,984.10
2018-10-06T12:02:06.736Z,984.12
2018-10-06T12:03:06.891Z,984.10
2018-10-06T12:04:07.049Z,984.09
2018-10-06T12:05:07.208Z,984.08
2018-10-06T12:06:07.366Z,984.09
2018-10-06T12:07:07.526Z,984.07
2018-10-06T12:08:07.689Z,984.08
2018-10-06T12:09:07.847Z,984.09
2018-10-06T12:10:08.002Z,984.03
2018-10-06T12:11:08.162Z,984.04
2018-10-06T12:12:08.325Z,983.99
2018-10-06T12:13:08.482Z,983.97
2018-10-06T12:14:08.642Z,983.95
2018-10-06T12:15:08.803Z,983.90
2018-10-06T12:16:08.961Z,983.90
2018-10-06T12:17:09.120Z,983.90
2018-10-06T12:18:09.283Z,983.89
2018-10-06T12:19:09.453Z,983.93
2018-10-06T12:20:09.610Z,983.94
2018-10-06T12:21:09.767Z,983.91
2018-10-06T12:22:09.928Z,983.92
2018-10-06T12:23:10.086Z,983.88
2018-10-06T12:24:10.247Z,983.87
2018-10-06T12:25:10.406Z,983.88
2018-10-06T12:26:10.582Z,983.90
2018-10-06T12:27:10.727Z,983.84
2018-10-06T12:28:10.884Z,983.82
2018-10-06T12:29:11.043Z,983.86
2018-10-06T12:30:11.232Z,983.83